createdAt,value
2019-03-24T00:00:23.256Z,4.70
2019-03-24T00:04:26.933Z,4.70
2019-03-24T00:08:30.571Z,4.60
2019-03-24T00:12:34.177Z,4.60
2019-03-24T00:16:37.809Z,4.60
2019-03-24T00:20:41.417Z,4.50
2019-03-24T00:24:45.020Z,4.50
2019-03-24T00:28:48.608Z,4.40
2019-03-24T00:32:52.231Z,4.40
2019-03-24T00:36:55.924Z,4.30
2019-03-24T00:40:59.529Z,4.30
2019-03-24T00:45:03.971Z,4.20
2019-03-24T00:49:07.597Z,4.20
2019-03-24T00:53:11.140Z,4.10
2019-03-24T00:57:14.960Z,4.00
2019-03-24T01:01:19.740Z,3.90
2019-03-24T01:05:23.350Z,3.80
2019-03-24T01:09:27.231Z,3.80
2019-03-24T01:13:30.815Z,3.70
2019-03-24T01:17:34.424Z,3.80
2019-03-24T01:21:38.029Z,3.80
2019-03-24T01:25:41.634Z,3.60
2019-03-24T01:29:45.235Z,3.30
2019-03-24T01:33:48.836Z,3.20
2019-03-24T01:37:52.456Z,3.10
2019-03-24T01:41:56.061Z,3.00
2019-03-24T01:45:59.685Z,2.90
2019-03-24T01:50:04.533Z,2.80
2019-03-24T01:54:08.142Z,2.70
2019-03-24T01:58:11.746Z,2.70
2019-03-24T02:02:15.354Z,2.80
2019-03-24T02:06:18.980Z,2.70
2019-03-24T02:10:22.653Z,2.70
2019-03-24T02:14:26.235Z,2.60
2019-03-24T02:18:30.213Z,2.60
2019-03-24T02:22:33.817Z,2.70
2019-03-24T02:26:37.416Z,2.70
2019-03-24T02:30:41.036Z,2.70
2019-03-24T02:34:44.616Z,2.40
2019-03-24T02:38:48.218Z,2.20
2019-03-24T02:42:51.817Z,2.20
2019-03-24T02:46:55.490Z,2.10
2019-03-24T02:50:59.101Z,2.00
2019-03-24T02:55:02.695Z,2.00
2019-03-24T02:59:06.298Z,2.10
2019-03-24T03:03:10.098Z,2.20
2019-03-24T03:07:13.691Z,2.30
2019-03-24T03:11:17.375Z,2.20
2019-03-24T03:15:20.996Z,2.30
2019-03-24T03:19:24.581Z,2.40
2019-03-24T03:23:28.248Z,2.40
2019-03-24T03:27:31.897Z,2.60
2019-03-24T03:31:35.501Z,2.70
2019-03-24T03:35:39.186Z,2.70
2019-03-24T03:39:42.781Z,2.70
2019-03-24T03:43:46.384Z,2.60
2019-03-24T03:47:49.994Z,2.60
2019-03-24T03:51:53.598Z,2.60
2019-03-24T03:55:57.205Z,2.70
2019-03-24T04:00:00.787Z,2.80
2019-03-24T04:04:04.397Z,2.80
2019-03-24T04:08:08.142Z,2.60
2019-03-24T04:12:12.163Z,2.50
2019-03-24T04:16:15.766Z,2.40
2019-03-24T04:20:19.353Z,2.30
2019-03-24T04:24:22.938Z,2.30
2019-03-24T04:28:26.554Z,2.40
2019-03-24T04:32:30.174Z,2.50
2019-03-24T04:36:33.763Z,2.60
2019-03-24T04:40:37.339Z,2.60
2019-03-24T04:44:40.929Z,2.50
2019-03-24T04:48:44.536Z,2.40
2019-03-24T04:52:48.154Z,2.40
2019-03-24T04:56:51.764Z,2.50
2019-03-24T05:00:55.378Z,2.60
2019-03-24T05:04:59.005Z,2.60
2019-03-24T05:09:04.129Z,2.50
2019-03-24T05:13:07.740Z,2.40
2019-03-24T05:17:11.348Z,2.30
2019-03-24T05:21:14.976Z,2.30
2019-03-24T05:25:18.557Z,2.40
2019-03-24T05:29:22.179Z,2.50
2019-03-24T05:33:25.776Z,2.60
2019-03-24T05:37:29.393Z,2.70
2019-03-24T05:41:32.996Z,2.70
2019-03-24T05:45:36.587Z,2.70
2019-03-24T05:49:40.204Z,2.60
2019-03-24T05:53:43.815Z,2.60
2019-03-24T05:57:47.416Z,2.60
2019-03-24T06:01:51.023Z,2.70
2019-03-24T06:05:54.603Z,2.80
2019-03-24T06:09:58.184Z,2.90
2019-03-24T06:14:03.350Z,3.10
2019-03-24T06:18:06.955Z,3.20
2019-03-24T06:22:10.566Z,3.30
2019-03-24T06:26:14.170Z,3.20
2019-03-24T06:30:17.822Z,3.30
2019-03-24T06:34:21.425Z,3.40
2019-03-24T06:38:25.037Z,3.60
2019-03-24T06:42:28.646Z,3.70
2019-03-24T06:46:32.256Z,3.90
2019-03-24T06:50:35.849Z,3.90
2019-03-24T06:54:39.496Z,4.00
2019-03-24T06:58:43.101Z,4.20
2019-03-24T07:02:46.713Z,4.70
2019-03-24T07:06:50.323Z,5.30
2019-03-24T07:10:53.909Z,6.00
2019-03-24T07:14:57.524Z,6.60
2019-03-24T07:19:01.137Z,7.50
2019-03-24T07:23:04.749Z,8.40
2019-03-24T07:27:08.353Z,9.20
2019-03-24T07:31:11.932Z,9.80
2019-03-24T07:35:15.507Z,9.90
2019-03-24T07:39:19.128Z,10.10
2019-03-24T07:43:22.764Z,10.50
2019-03-24T07:47:26.476Z,10.30
2019-03-24T07:51:30.088Z,10.00
2019-03-24T07:55:33.667Z,10.70
2019-03-24T07:59:37.271Z,10.80
2019-03-24T08:03:40.890Z,11.30
2019-03-24T08:07:44.493Z,11.70
2019-03-24T08:11:48.105Z,11.60
2019-03-24T08:15:51.697Z,10.40
2019-03-24T08:19:55.308Z,9.80
2019-03-24T08:23:58.942Z,10.70
2019-03-24T08:28:02.560Z,11.20
2019-03-24T08:32:06.176Z,11.20
2019-03-24T08:36:09.765Z,10.90
2019-03-24T08:40:13.374Z,10.90
2019-03-24T08:44:16.976Z,11.30
2019-03-24T08:48:20.589Z,11.20
2019-03-24T08:52:24.292Z,11.70
2019-03-24T08:56:27.877Z,12.60
2019-03-24T09:00:31.534Z,12.10
2019-03-24T09:04:35.160Z,11.20
2019-03-24T09:08:38.760Z,12.80
2019-03-24T09:12:42.456Z,11.10
2019-03-24T09:16:46.050Z,9.90
2019-03-24T09:20:49.644Z,9.90
2019-03-24T09:24:53.253Z,9.30
2019-03-24T09:28:59.132Z,9.80
2019-03-24T09:33:02.116Z,10.60
2019-03-24T09:37:05.706Z,10.50
2019-03-24T09:41:09.306Z,11.20
2019-03-24T09:45:12.905Z,9.80
2019-03-24T09:49:16.518Z,9.90
2019-03-24T09:53:20.200Z,9.80
2019-03-24T09:57:23.775Z,9.70
2019-03-24T10:01:27.362Z,9.30
2019-03-24T10:05:30.997Z,9.70
2019-03-24T10:09:34.603Z,10.00
2019-03-24T10:13:38.221Z,10.10
2019-03-24T10:17:41.819Z,10.30
2019-03-24T10:21:45.404Z,10.50
2019-03-24T10:25:49.096Z,10.40
2019-03-24T10:29:52.779Z,10.50
2019-03-24T10:33:56.378Z,9.90
2019-03-24T10:37:59.956Z,9.80
2019-03-24T10:42:03.540Z,9.80
2019-03-24T10:46:07.277Z,9.50
2019-03-24T10:50:11.212Z,9.40
2019-03-24T10:54:14.867Z,9.50
2019-03-24T10:58:18.432Z,9.40
2019-03-24T11:02:22.059Z,9.60
2019-03-24T11:06:25.665Z,9.40
2019-03-24T11:10:29.267Z,9.40
2019-03-24T11:14:32.872Z,9.50
2019-03-24T11:18:36.510Z,9.60
2019-03-24T11:22:40.080Z,9.40
2019-03-24T11:26:43.829Z,9.50
2019-03-24T11:30:47.438Z,9.50
2019-03-24T11:34:51.036Z,9.60
2019-03-24T11:38:54.642Z,9.40
2019-03-24T11:42:58.232Z,9.40
2019-03-24T11:47:01.846Z,9.30
2019-03-24T11:51:05.443Z,9.50
2019-03-24T11:55:09.590Z,9.30
2019-03-24T11:59:13.201Z,9.20
2019-03-24T12:03:16.781Z,9.00
2019-03-24T12:07:20.385Z,9.10
2019-03-24T12:11:23.992Z,9.00
2019-03-24T12:15:27.604Z,9.00
2019-03-24T12:19:31.206Z,8.90
2019-03-24T12:23:35.053Z,8.90
2019-03-24T12:27:38.656Z,9.00
2019-03-24T12:31:42.268Z,9.00
2019-03-24T12:35:45.872Z,9.10
2019-03-24T12:39:49.498Z,9.30
2019-03-24T12:43:53.124Z,9.60
2019-03-24T12:47:56.707Z,10.00
2019-03-24T12:52:00.380Z,9.90
2019-03-24T12:56:04.033Z,10.00
2019-03-24T13:00:09.588Z,10.20
2019-03-24T13:04:13.180Z,10.30
2019-03-24T13:08:17.462Z,10.50
2019-03-24T13:12:21.066Z,10.60
2019-03-24T13:16:24.714Z,10.60
2019-03-24T13:20:38.115Z,10.70
2019-03-24T13:24:33.558Z,11.00
2019-03-24T13:28:37.135Z,11.20
2019-03-24T13:32:40.752Z,11.30
2019-03-24T13:36:44.448Z,11.50
2019-03-24T13:40:48.392Z,11.70
2019-03-24T13:44:52.541Z,11.70
2019-03-24T13:48:56.137Z,11.80
2019-03-24T13:52:59.813Z,11.10
2019-03-24T13:57:03.425Z,10.70
2019-03-24T14:01:07.823Z,10.30
2019-03-24T14:05:11.383Z,10.30
2019-03-24T14:09:15.057Z,10.30
2019-03-24T14:13:18.651Z,10.80
2019-03-24T14:17:22.260Z,11.00
2019-03-24T14:21:25.867Z,11.20
2019-03-24T14:25:29.441Z,11.20
2019-03-24T14:29:33.024Z,11.00
2019-03-24T14:33:36.631Z,11.00
2019-03-24T14:37:40.251Z,11.10
2019-03-24T14:41:43.921Z,11.20
2019-03-24T14:45:47.492Z,11.00
2019-03-24T14:49:51.081Z,11.20
2019-03-24T14:53:54.960Z,11.30
2019-03-24T14:57:58.930Z,11.20
2019-03-24T15:02:02.791Z,11.10
2019-03-24T15:06:06.426Z,11.30
2019-03-24T15:10:10.858Z,11.20
2019-03-24T15:14:14.492Z,11.10
2019-03-24T15:18:18.231Z,11.10
2019-03-24T15:22:22.030Z,11.20
2019-03-24T15:26:25.730Z,11.20
2019-03-24T15:30:29.574Z,11.00
2019-03-24T15:34:33.187Z,11.10
2019-03-24T15:38:37.099Z,11.10
2019-03-24T15:42:40.709Z,11.10
2019-03-24T15:46:44.316Z,10.80
2019-03-24T15:50:48.096Z,10.80
2019-03-24T15:54:52.109Z,10.80
2019-03-24T15:58:55.666Z,10.80
2019-03-24T16:03:00.586Z,10.60
2019-03-24T16:07:04.524Z,10.60
2019-03-24T16:11:08.378Z,10.50
2019-03-24T16:15:12.465Z,10.40
2019-03-24T16:19:16.342Z,10.30
2019-03-24T16:23:20.334Z,10.10
2019-03-24T16:27:24.186Z,10.00
2019-03-24T16:31:27.803Z,9.90
2019-03-24T16:35:31.405Z,9.70
2019-03-24T16:39:35.013Z,9.70
2019-03-24T16:43:38.664Z,9.50
2019-03-24T16:47:42.823Z,9.40
2019-03-24T16:51:46.391Z,9.40
2019-03-24T16:55:50.018Z,9.30
2019-03-24T16:59:53.615Z,9.20
2019-03-24T17:03:57.462Z,9.10
2019-03-24T17:08:01.353Z,8.90
2019-03-24T17:12:04.974Z,8.80
2019-03-24T17:16:08.623Z,8.60
2019-03-24T17:20:12.364Z,8.40
2019-03-24T17:24:15.975Z,8.20
2019-03-24T17:28:19.574Z,8.00
2019-03-24T17:32:23.147Z,7.90
2019-03-24T17:36:26.735Z,7.60
2019-03-24T17:40:30.400Z,7.50
2019-03-24T17:44:33.996Z,7.40
2019-03-24T17:48:37.602Z,7.30
2019-03-24T17:52:41.544Z,7.20
2019-03-24T17:56:45.196Z,7.00
2019-03-24T18:00:50.577Z,7.00
2019-03-24T18:04:54.191Z,6.80
2019-03-24T18:08:57.784Z,6.50
2019-03-24T18:13:01.632Z,5.90
2019-03-24T18:17:05.741Z,5.70
2019-03-24T18:21:09.591Z,5.90
2019-03-24T18:25:13.370Z,5.70
2019-03-24T18:29:18.631Z,5.40
2019-03-24T18:33:22.681Z,5.50
2019-03-24T18:37:26.256Z,5.30
2019-03-24T18:41:29.855Z,5.00
2019-03-24T18:45:33.462Z,5.00
2019-03-24T18:49:37.063Z,4.90
2019-03-24T18:53:40.643Z,4.90
2019-03-24T18:57:44.222Z,5.00
2019-03-24T19:01:47.826Z,5.20
2019-03-24T19:05:51.437Z,5.00
2019-03-24T19:09:55.032Z,5.10
2019-03-24T19:13:58.616Z,5.10
2019-03-24T19:18:02.337Z,5.20
2019-03-24T19:22:05.942Z,5.30
2019-03-24T19:26:09.549Z,5.50
2019-03-24T19:30:18.516Z,5.60
2019-03-24T19:34:22.056Z,5.80
2019-03-24T19:38:26.034Z,5.80
2019-03-24T19:42:30.194Z,6.00
2019-03-24T19:46:33.906Z,6.10
2019-03-24T19:50:37.980Z,6.20
2019-03-24T19:54:42.136Z,6.20
2019-03-24T19:58:46.040Z,6.20
2019-03-24T20:02:50.013Z,6.20
2019-03-24T20:06:54.097Z,6.20
2019-03-24T20:10:57.760Z,6.20
2019-03-24T20:15:01.391Z,6.10
2019-03-24T20:19:05.214Z,6.10
2019-03-24T20:23:08.936Z,6.10
2019-03-24T20:27:12.857Z,6.10
2019-03-24T20:31:16.662Z,6.10
2019-03-24T20:35:20.254Z,6.00
2019-03-24T20:39:23.983Z,5.90
2019-03-24T20:43:27.725Z,5.90
2019-03-24T20:47:31.755Z,5.80
2019-03-24T20:51:35.452Z,5.80
2019-03-24T20:55:39.268Z,5.80
2019-03-24T20:59:42.952Z,5.80
2019-03-24T21:03:46.590Z,5.80
2019-03-24T21:07:50.505Z,5.80
2019-03-24T21:11:55.386Z,5.80
2019-03-24T21:15:59.429Z,5.80
2019-03-24T21:20:03.524Z,5.70
2019-03-24T21:24:07.474Z,5.70
2019-03-24T21:33:14.956Z,5.70
2019-03-24T21:37:18.553Z,5.50
2019-03-24T21:41:22.155Z,5.40
2019-03-24T21:45:25.732Z,5.50
2019-03-24T21:49:29.324Z,5.50
2019-03-24T21:53:40.590Z,5.50
2019-03-24T21:57:38.152Z,5.40
2019-03-24T22:01:41.736Z,5.40
2019-03-24T22:05:45.314Z,5.40
2019-03-24T22:09:48.891Z,5.40
2019-03-24T22:13:52.474Z,5.40
2019-03-24T22:17:56.056Z,5.50
2019-03-24T22:21:59.652Z,5.40
2019-03-24T22:26:03.285Z,5.40
2019-03-24T22:30:08.208Z,5.40
2019-03-24T22:34:11.779Z,5.40
2019-03-24T22:38:15.359Z,5.50
2019-03-24T22:42:18.937Z,5.40
2019-03-24T22:46:22.515Z,5.50
2019-03-24T22:50:27.501Z,5.60
2019-03-24T22:54:31.055Z,5.60
2019-03-24T22:58:34.731Z,5.70
2019-03-24T23:02:38.355Z,5.60
2019-03-24T23:06:42.390Z,5.70
2019-03-24T23:10:46.491Z,5.80
2019-03-24T23:14:50.053Z,5.80
2019-03-24T23:18:53.634Z,5.80
2019-03-24T23:22:57.221Z,5.70
2019-03-24T23:27:00.798Z,5.60
2019-03-24T23:31:04.668Z,5.40
2019-03-24T23:35:08.414Z,5.40
2019-03-24T23:39:12.332Z,5.20
2019-03-24T23:43:15.914Z,5.00
2019-03-24T23:47:19.487Z,4.90
2019-03-24T23:51:23.754Z,4.80
2019-03-24T23:55:27.264Z,4.60
2019-03-24T23:59:30.992Z,4.60
